sensor_id;sensor_type;location;lat;lon;timestamp;pressure;altitude;pressure_sealevel;temperature
14666;BMP280;7420;53.574;10.040;2023-03-05T00:01:31;101382.16;;;2.68
14666;BMP280;7420;53.574;10.040;2023-03-05T00:03:57;101371.66;;;2.68
14666;BMP280;7420;53.574;10.040;2023-03-05T00:06:25;101368.91;;;2.60
14666;BMP280;7420;53.574;10.040;2023-03-05T00:08:52;101365.03;;;2.64
14666;BMP280;7420;53.574;10.040;2023-03-05T00:11:18;101362.13;;;2.67
14666;BMP280;7420;53.574;10.040;2023-03-05T00:13:44;101353.00;;;2.71
14666;BMP280;7420;53.574;10.040;2023-03-05T00:16:12;101345.00;;;2.73
14666;BMP280;7420;53.574;10.040;2023-03-05T00:18:38;101356.03;;;2.76
14666;BMP280;7420;53.574;10.040;2023-03-05T00:21:04;101357.28;;;2.72
14666;BMP280;7420;53.574;10.040;2023-03-05T00:23:29;101342.66;;;2.70
14666;BMP280;7420;53.574;10.040;2023-03-05T00:25:55;101348.44;;;2.73
14666;BMP280;7420;53.574;10.040;2023-03-05T00:28:20;101337.25;;;2.71
14666;BMP280;7420;53.574;10.040;2023-03-05T00:30:46;101345.41;;;2.68
14666;BMP280;7420;53.574;10.040;2023-03-05T00:33:12;101342.50;;;2.71
14666;BMP280;7420;53.574;10.040;2023-03-05T00:35:42;101340.44;;;2.65
14666;BMP280;7420;53.574;10.040;2023-03-05T00:38:08;101340.31;;;2.57
14666;BMP280;7420;53.574;10.040;2023-03-05T00:40:35;101344.59;;;2.58
14666;BMP280;7420;53.574;10.040;2023-03-05T00:43:02;101352.38;;;2.50
14666;BMP280;7420;53.574;10.040;2023-03-05T00:45:27;101350.59;;;2.41
14666;BMP280;7420;53.574;10.040;2023-03-05T00:47:52;101349.50;;;2.34
14666;BMP280;7420;53.574;10.040;2023-03-05T00:50:18;101336.81;;;2.21
14666;BMP280;7420;53.574;10.040;2023-03-05T00:52:43;101339.72;;;2.18
14666;BMP280;7420;53.574;10.040;2023-03-05T00:55:08;101334.19;;;2.21
14666;BMP280;7420;53.574;10.040;2023-03-05T00:57:34;101324.28;;;2.15
14666;BMP280;7420;53.574;10.040;2023-03-05T00:59:59;101318.22;;;2.05
14666;BMP280;7420;53.574;10.040;2023-03-05T01:02:24;101322.06;;;2.10
14666;BMP280;7420;53.574;10.040;2023-03-05T01:04:50;101309.66;;;2.03
14666;BMP280;7420;53.574;10.040;2023-03-05T01:07:15;101314.47;;;2.07
14666;BMP280;7420;53.574;10.040;2023-03-05T01:09:41;101322.63;;;2.04
14666;BMP280;7420;53.574;10.040;2023-03-05T01:12:06;101304.69;;;2.00
14666;BMP280;7420;53.574;10.040;2023-03-05T01:14:32;101313.53;;;1.99
14666;BMP280;7420;53.574;10.040;2023-03-05T01:16:58;101314.09;;;1.83
14666;BMP280;7420;53.574;10.040;2023-03-05T01:19:24;101302.75;;;1.83
14666;BMP280;7420;53.574;10.040;2023-03-05T01:21:49;101300.69;;;1.77
14666;BMP280;7420;53.574;10.040;2023-03-05T01:24:14;101299.44;;;1.81
14666;BMP280;7420;53.574;10.040;2023-03-05T01:26:40;101302.66;;;1.75
14666;BMP280;7420;53.574;10.040;2023-03-05T01:29:05;101302.50;;;1.76
14666;BMP280;7420;53.574;10.040;2023-03-05T01:31:30;101298.94;;;1.68
14666;BMP280;7420;53.574;10.040;2023-03-05T01:33:56;101290.22;;;1.77
14666;BMP280;7420;53.574;10.040;2023-03-05T01:36:22;101287.59;;;1.77
14666;BMP280;7420;53.574;10.040;2023-03-05T01:38:49;101293.41;;;1.80
14666;BMP280;7420;53.574;10.040;2023-03-05T01:41:15;101281.94;;;1.81
14666;BMP280;7420;53.574;10.040;2023-03-05T01:43:42;101283.44;;;1.84
14666;BMP280;7420;53.574;10.040;2023-03-05T01:48:50;101261.38;;;1.77
14666;BMP280;7420;53.574;10.040;2023-03-05T01:51:18;101261.78;;;1.82
14666;BMP280;7420;53.574;10.040;2023-03-05T01:53:44;101264.13;;;1.85
14666;BMP280;7420;53.574;10.040;2023-03-05T01:56:10;101266.91;;;1.83
14666;BMP280;7420;53.574;10.040;2023-03-05T01:58:35;101267.75;;;1.74
14666;BMP280;7420;53.574;10.040;2023-03-05T02:01:04;101265.78;;;1.86
14666;BMP280;7420;53.574;10.040;2023-03-05T02:03:30;101268.13;;;1.89
14666;BMP280;7420;53.574;10.040;2023-03-05T02:05:56;101265.94;;;1.84
14666;BMP280;7420;53.574;10.040;2023-03-05T02:08:22;101261.94;;;1.80
14666;BMP280;7420;53.574;10.040;2023-03-05T02:10:50;101248.16;;;1.78
14666;BMP280;7420;53.574;10.040;2023-03-05T02:13:25;101247.31;;;1.78
14666;BMP280;7420;53.574;10.040;2023-03-05T02:15:52;101249.25;;;1.76
14666;BMP280;7420;53.574;10.040;2023-03-05T02:18:21;101236.44;;;1.73
14666;BMP280;7420;53.574;10.040;2023-03-05T02:20:51;101237.41;;;1.72
14666;BMP280;7420;53.574;10.040;2023-03-05T02:23:19;101236.56;;;1.71
14666;BMP280;7420;53.574;10.040;2023-03-05T02:25:45;101236.31;;;1.55
14666;BMP280;7420;53.574;10.040;2023-03-05T02:28:17;101228.03;;;1.60
14666;BMP280;7420;53.574;10.040;2023-03-05T02:30:44;101225.25;;;1.52
14666;BMP280;7420;53.574;10.040;2023-03-05T02:33:09;101228.03;;;1.60
14666;BMP280;7420;53.574;10.040;2023-03-05T02:35:34;101224.44;;;1.61
14666;BMP280;7420;53.574;10.040;2023-03-05T02:38:00;101220.88;;;1.52
14666;BMP280;7420;53.574;10.040;2023-03-05T02:40:25;101220.72;;;1.54
14666;BMP280;7420;53.574;10.040;2023-03-05T02:42:51;101220.84;;;1.62
14666;BMP280;7420;53.574;10.040;2023-03-05T02:45:16;101217.00;;;1.56
14666;BMP280;7420;53.574;10.040;2023-03-05T02:47:42;101222.09;;;1.58
14666;BMP280;7420;53.574;10.040;2023-03-05T02:50:09;101215.34;;;1.65
14666;BMP280;7420;53.574;10.040;2023-03-05T02:52:34;101225.53;;;1.68
14666;BMP280;7420;53.574;10.040;2023-03-05T02:55:00;101221.94;;;1.69
14666;BMP280;7420;53.574;10.040;2023-03-05T02:57:25;101205.38;;;1.68
14666;BMP280;7420;53.574;10.040;2023-03-05T02:59:51;101209.81;;;1.49
14666;BMP280;7420;53.574;10.040;2023-03-05T03:02:16;101211.75;;;1.56
14666;BMP280;7420;53.574;10.040;2023-03-05T03:04:42;101211.91;;;1.45
14666;BMP280;7420;53.574;10.040;2023-03-05T03:07:09;101210.09;;;1.55
14666;BMP280;7420;53.574;10.040;2023-03-05T03:09:35;101202.91;;;1.57
14666;BMP280;7420;53.574;10.040;2023-03-05T03:12:01;101193.00;;;1.51
14666;BMP280;7420;53.574;10.040;2023-03-05T03:14:30;101189.81;;;1.57
14666;BMP280;7420;53.574;10.040;2023-03-05T03:16:55;101179.22;;;1.49
14666;BMP280;7420;53.574;10.040;2023-03-05T03:19:22;101183.63;;;1.49
14666;BMP280;7420;53.574;10.040;2023-03-05T03:21:47;101176.44;;;1.51
14666;BMP280;7420;53.574;10.040;2023-03-05T03:24:14;101161.41;;;1.53
14666;BMP280;7420;53.574;10.040;2023-03-05T03:26:39;101169.28;;;1.53
14666;BMP280;7420;53.574;10.040;2023-03-05T03:29:05;101163.50;;;1.49
14666;BMP280;7420;53.574;10.040;2023-03-05T03:31:30;101176.31;;;1.43
14666;BMP280;7420;53.574;10.040;2023-03-05T03:33:55;101172.44;;;1.47
14666;BMP280;7420;53.574;10.040;2023-03-05T03:36:21;101166.94;;;1.50
14666;BMP280;7420;53.574;10.040;2023-03-05T03:38:46;101152.34;;;1.47
14666;BMP280;7420;53.574;10.040;2023-03-05T03:41:11;101156.72;;;1.47
14666;BMP280;7420;53.574;10.040;2023-03-05T03:43:37;101153.56;;;1.43
14666;BMP280;7420;53.574;10.040;2023-03-05T03:46:06;101179.78;;;1.43
14666;BMP280;7420;53.574;10.040;2023-03-05T03:48:31;101162.69;;;1.39
14666;BMP280;7420;53.574;10.040;2023-03-05T03:50:57;101155.94;;;1.37
14666;BMP280;7420;53.574;10.040;2023-03-05T03:53:22;101151.94;;;1.33
14666;BMP280;7420;53.574;10.040;2023-03-05T03:55:48;101152.75;;;1.33
14666;BMP280;7420;53.574;10.040;2023-03-05T03:58:13;101148.06;;;1.27
14666;BMP280;7420;53.574;10.040;2023-03-05T04:00:39;101144.19;;;1.31
14666;BMP280;7420;53.574;10.040;2023-03-05T04:03:05;101145.44;;;1.27
14666;BMP280;7420;53.574;10.040;2023-03-05T04:05:31;101151.66;;;1.26
14666;BMP280;7420;53.574;10.040;2023-03-05T04:07:56;101140.63;;;1.23
14666;BMP280;7420;53.574;10.040;2023-03-05T04:10:24;101144.91;;;1.24
14666;BMP280;7420;53.574;10.040;2023-03-05T04:12:49;101138.28;;;1.20
14666;BMP280;7420;53.574;10.040;2023-03-05T04:15:15;101134.44;;;1.24
14666;BMP280;7420;53.574;10.040;2023-03-05T04:17:40;101138.44;;;1.28
14666;BMP280;7420;53.574;10.040;2023-03-05T04:20:06;101135.41;;;1.23
14666;BMP280;7420;53.574;10.040;2023-03-05T04:22:34;101140.91;;;1.29
14666;BMP280;7420;53.574;10.040;2023-03-05T04:25:00;101137.31;;;1.21
14666;BMP280;7420;53.574;10.040;2023-03-05T04:27:27;101133.88;;;1.30
14666;BMP280;7420;53.574;10.040;2023-03-05T04:29:53;101128.75;;;1.28
14666;BMP280;7420;53.574;10.040;2023-03-05T04:32:18;101127.41;;;1.34
14666;BMP280;7420;53.574;10.040;2023-03-05T04:34:47;101132.06;;;1.30
14666;BMP280;7420;53.574;10.040;2023-03-05T04:37:12;101131.94;;;1.22
14666;BMP280;7420;53.574;10.040;2023-03-05T04:39:38;101126.16;;;1.28
14666;BMP280;7420;53.574;10.040;2023-03-05T04:42:03;101116.50;;;1.29
14666;BMP280;7420;53.574;10.040;2023-03-05T04:44:28;101116.91;;;1.34
14666;BMP280;7420;53.574;10.040;2023-03-05T04:46:54;101122.28;;;1.32
14666;BMP280;7420;53.574;10.040;2023-03-05T04:49:19;101115.66;;;1.38
14666;BMP280;7420;53.574;10.040;2023-03-05T04:51:45;101112.50;;;1.34
14666;BMP280;7420;53.574;10.040;2023-03-05T04:54:10;101098.97;;;1.39
14666;BMP280;7420;53.574;10.040;2023-03-05T04:56:35;101106.00;;;1.38
14666;BMP280;7420;53.574;10.040;2023-03-05T04:59:01;101094.56;;;1.39
14666;BMP280;7420;53.574;10.040;2023-03-05T05:01:26;101095.13;;;1.33
14666;BMP280;7420;53.574;10.040;2023-03-05T05:03:51;101098.31;;;1.37
14666;BMP280;7420;53.574;10.040;2023-03-05T05:06:17;101091.69;;;1.33
14666;BMP280;7420;53.574;10.040;2023-03-05T05:08:42;101088.09;;;1.34
14666;BMP280;7420;53.574;10.040;2023-03-05T05:11:12;101082.88;;;1.34
14666;BMP280;7420;53.574;10.040;2023-03-05T05:13:38;101092.06;;;1.38
14666;BMP280;7420;53.574;10.040;2023-03-05T05:16:07;101082.72;;;1.35
14666;BMP280;7420;53.574;10.040;2023-03-05T05:18:32;101084.91;;;1.40
14666;BMP280;7420;53.574;10.040;2023-03-05T05:20:57;101083.25;;;1.39
14666;BMP280;7420;53.574;10.040;2023-03-05T05:23:23;101086.84;;;1.28
14666;BMP280;7420;53.574;10.040;2023-03-05T05:25:57;101078.88;;;1.30
14666;BMP280;7420;53.574;10.040;2023-03-05T05:28:22;101075.56;;;1.28
14666;BMP280;7420;53.574;10.040;2023-03-05T05:30:47;101077.34;;;1.37
14666;BMP280;7420;53.574;10.040;2023-03-05T05:33:13;101071.13;;;1.38
14666;BMP280;7420;53.574;10.040;2023-03-05T05:35:38;101071.41;;;1.25
14666;BMP280;7420;53.574;10.040;2023-03-05T05:38:04;101077.75;;;1.32
14666;BMP280;7420;53.574;10.040;2023-03-05T05:40:29;101073.06;;;1.36
14666;BMP280;7420;53.574;10.040;2023-03-05T05:42:54;101076.34;;;1.38
14666;BMP280;7420;53.574;10.040;2023-03-05T05:45:20;101078.00;;;1.39
14666;BMP280;7420;53.574;10.040;2023-03-05T05:47:45;101072.13;;;1.37
14666;BMP280;7420;53.574;10.040;2023-03-05T05:50:11;101069.19;;;1.40
14666;BMP280;7420;53.574;10.040;2023-03-05T05:52:36;101081.34;;;1.31
14666;BMP280;7420;53.574;10.040;2023-03-05T05:55:01;101071.13;;;1.38
14666;BMP280;7420;53.574;10.040;2023-03-05T05:57:27;101070.44;;;1.45
14666;BMP280;7420;53.574;10.040;2023-03-05T05:59:52;101073.31;;;1.42
14666;BMP280;7420;53.574;10.040;2023-03-05T06:02:17;101067.25;;;1.42
14666;BMP280;7420;53.574;10.040;2023-03-05T06:04:43;101073.06;;;1.36
14666;BMP280;7420;53.574;10.040;2023-03-05T06:07:08;101065.75;;;1.39
14666;BMP280;7420;53.574;10.040;2023-03-05T06:09:34;101068.22;;;1.41
14666;BMP280;7420;53.574;10.040;2023-03-05T06:12:00;101070.03;;;1.40
14666;BMP280;7420;53.574;10.040;2023-03-05T06:14:25;101073.72;;;1.38
14666;BMP280;7420;53.574;10.040;2023-03-05T06:16:51;101079.66;;;1.40
14666;BMP280;7420;53.574;10.040;2023-03-05T06:19:16;101079.38;;;1.43
14666;BMP280;7420;53.574;10.040;2023-03-05T06:21:42;101072.50;;;1.42
14666;BMP280;7420;53.574;10.040;2023-03-05T06:24:08;101074.00;;;1.44
14666;BMP280;7420;53.574;10.040;2023-03-05T06:26:33;101079.50;;;1.51
14666;BMP280;7420;53.574;10.040;2023-03-05T06:28:59;101075.50;;;1.47
14666;BMP280;7420;53.574;10.040;2023-03-05T06:31:26;101064.22;;;1.46
14666;BMP280;7420;53.574;10.040;2023-03-05T06:33:53;101070.16;;;1.48
14666;BMP280;7420;53.574;10.040;2023-03-05T06:36:20;101066.97;;;1.54
14666;BMP280;7420;53.574;10.040;2023-03-05T06:38:46;101064.19;;;1.56
14666;BMP280;7420;53.574;10.040;2023-03-05T06:41:14;101073.53;;;1.58
14666;BMP280;7420;53.574;10.040;2023-03-05T06:43:41;101070.28;;;1.56
14666;BMP280;7420;53.574;10.040;2023-03-05T06:48:35;101072.88;;;1.47
14666;BMP280;7420;53.574;10.040;2023-03-05T06:51:00;101083.53;;;1.45
14666;BMP280;7420;53.574;10.040;2023-03-05T06:53:26;101073.56;;;1.49
14666;BMP280;7420;53.574;10.040;2023-03-05T06:55:52;101077.56;;;1.53
14666;BMP280;7420;53.574;10.040;2023-03-05T06:58:18;101071.06;;;1.57
14666;BMP280;7420;53.574;10.040;2023-03-05T07:00:43;101070.78;;;1.60
14666;BMP280;7420;53.574;10.040;2023-03-05T07:03:10;101069.44;;;1.56
14666;BMP280;7420;53.574;10.040;2023-03-05T07:05:39;101085.16;;;1.56
14666;BMP280;7420;53.574;10.040;2023-03-05T07:08:05;101070.56;;;1.53
14666;BMP280;7420;53.574;10.040;2023-03-05T07:10:30;101072.44;;;1.61
14666;BMP280;7420;53.574;10.040;2023-03-05T07:12:56;101079.75;;;1.67
14666;BMP280;7420;53.574;10.040;2023-03-05T07:15:21;101067.31;;;1.69
14666;BMP280;7420;53.574;10.040;2023-03-05T07:17:47;101066.06;;;1.73
14666;BMP280;7420;53.574;10.040;2023-03-05T07:20:12;101064.94;;;1.75
14666;BMP280;7420;53.574;10.040;2023-03-05T07:22:38;101074.06;;;1.71
14666;BMP280;7420;53.574;10.040;2023-03-05T07:25:04;101075.44;;;1.75
14666;BMP280;7420;53.574;10.040;2023-03-05T07:27:33;101072.13;;;1.73
14666;BMP280;7420;53.574;10.040;2023-03-05T07:29:59;101064.91;;;1.85
14666;BMP280;7420;53.574;10.040;2023-03-05T07:32:24;101070.00;;;1.86
14666;BMP280;7420;53.574;10.040;2023-03-05T07:34:50;101071.22;;;1.92
14666;BMP280;7420;53.574;10.040;2023-03-05T07:37:15;101067.50;;;1.85
14666;BMP280;7420;53.574;10.040;2023-03-05T07:39:40;101075.78;;;1.90
14666;BMP280;7420;53.574;10.040;2023-03-05T07:42:06;101075.09;;;1.88
14666;BMP280;7420;53.574;10.040;2023-03-05T07:44:31;101063.94;;;1.86
14666;BMP280;7420;53.574;10.040;2023-03-05T07:46:56;101073.72;;;1.84
14666;BMP280;7420;53.574;10.040;2023-03-05T07:49:21;101069.31;;;1.84
14666;BMP280;7420;53.574;10.040;2023-03-05T07:51:48;101064.09;;;1.84
14666;BMP280;7420;53.574;10.040;2023-03-05T07:54:13;101068.78;;;1.81
14666;BMP280;7420;53.574;10.040;2023-03-05T07:56:38;101051.09;;;1.83
14666;BMP280;7420;53.574;10.040;2023-03-05T07:59:05;101052.75;;;1.93
14666;BMP280;7420;53.574;10.040;2023-03-05T08:01:32;101060.59;;;1.93
14666;BMP280;7420;53.574;10.040;2023-03-05T08:03:58;101055.66;;;1.90
14666;BMP280;7420;53.574;10.040;2023-03-05T08:06:23;101046.59;;;2.02
14666;BMP280;7420;53.574;10.040;2023-03-05T08:08:48;101050.84;;;2.13
14666;BMP280;7420;53.574;10.040;2023-03-05T08:11:15;101041.78;;;2.24
14666;BMP280;7420;53.574;10.040;2023-03-05T08:13:41;101042.16;;;2.29
14666;BMP280;7420;53.574;10.040;2023-03-05T08:16:27;101045.06;;;2.26
14666;BMP280;7420;53.574;10.040;2023-03-05T08:18:56;101029.78;;;2.22
14666;BMP280;7420;53.574;10.040;2023-03-05T08:21:28;101040.28;;;2.22
14666;BMP280;7420;53.574;10.040;2023-03-05T08:23:57;101045.34;;;2.06
14666;BMP280;7420;53.574;10.040;2023-03-05T08:26:25;101046.41;;;2.13
14666;BMP280;7420;53.574;10.040;2023-03-05T08:28:50;101031.50;;;2.14
14666;BMP280;7420;53.574;10.040;2023-03-05T08:31:18;101043.97;;;2.29
14666;BMP280;7420;53.574;10.040;2023-03-05T08:33:44;101036.13;;;2.46
14666;BMP280;7420;53.574;10.040;2023-03-05T08:36:09;101036.03;;;2.56
14666;BMP280;7420;53.574;10.040;2023-03-05T08:38:35;101030.31;;;2.60
14666;BMP280;7420;53.574;10.040;2023-03-05T08:41:01;101022.69;;;2.67
14666;BMP280;7420;53.574;10.040;2023-03-05T08:43:26;101024.69;;;2.55
14666;BMP280;7420;53.574;10.040;2023-03-05T08:45:52;101019.09;;;2.68
14666;BMP280;7420;53.574;10.040;2023-03-05T08:48:21;101018.63;;;2.90
14666;BMP280;7420;53.574;10.040;2023-03-05T08:50:46;101020.66;;;2.78
14666;BMP280;7420;53.574;10.040;2023-03-05T08:53:13;101020.78;;;2.94
14666;BMP280;7420;53.574;10.040;2023-03-05T08:55:39;101015.09;;;2.81
14666;BMP280;7420;53.574;10.040;2023-03-05T08:58:04;101015.53;;;2.94
14666;BMP280;7420;53.574;10.040;2023-03-05T09:00:29;101017.28;;;3.11
14666;BMP280;7420;53.574;10.040;2023-03-05T09:02:55;101007.47;;;3.13
14666;BMP280;7420;53.574;10.040;2023-03-05T09:05:21;101004.59;;;3.24
14666;BMP280;7420;53.574;10.040;2023-03-05T09:07:47;100995.72;;;3.25
14666;BMP280;7420;53.574;10.040;2023-03-05T09:10:13;101009.19;;;3.22
14666;BMP280;7420;53.574;10.040;2023-03-05T09:12:40;100998.56;;;3.32
14666;BMP280;7420;53.574;10.040;2023-03-05T09:15:06;101004.53;;;3.16
14666;BMP280;7420;53.574;10.040;2023-03-05T09:17:33;100992.75;;;3.20
14666;BMP280;7420;53.574;10.040;2023-03-05T09:19:59;100995.13;;;3.39
14666;BMP280;7420;53.574;10.040;2023-03-05T09:22:24;100996.47;;;3.43
14666;BMP280;7420;53.574;10.040;2023-03-05T09:24:50;100993.63;;;3.62
14666;BMP280;7420;53.574;10.040;2023-03-05T09:27:15;100993.91;;;3.51
14666;BMP280;7420;53.574;10.040;2023-03-05T09:29:40;100998.13;;;3.77
14666;BMP280;7420;53.574;10.040;2023-03-05T09:32:06;101005.00;;;3.70
14666;BMP280;7420;53.574;10.040;2023-03-05T09:34:31;100989.78;;;3.48
14666;BMP280;7420;53.574;10.040;2023-03-05T09:36:59;100988.06;;;3.73
14666;BMP280;7420;53.574;10.040;2023-03-05T09:39:24;100984.94;;;3.69
14666;BMP280;7420;53.574;10.040;2023-03-05T09:42:06;100981.88;;;3.82
14666;BMP280;7420;53.574;10.040;2023-03-05T09:49:58;100976.97;;;3.53
14666;BMP280;7420;53.574;10.040;2023-03-05T09:52:32;100976.97;;;3.20
14666;BMP280;7420;53.574;10.040;2023-03-05T09:54:58;100977.34;;;3.00
14666;BMP280;7420;53.574;10.040;2023-03-05T09:57:45;100978.75;;;2.94
14666;BMP280;7420;53.574;10.040;2023-03-05T10:03:00;100980.72;;;2.32
14666;BMP280;7420;53.574;10.040;2023-03-05T10:08:18;100983.25;;;2.24
14666;BMP280;7420;53.574;10.040;2023-03-05T10:10:50;100978.31;;;2.21
14666;BMP280;7420;53.574;10.040;2023-03-05T10:13:26;100981.31;;;2.26
14666;BMP280;7420;53.574;10.040;2023-03-05T10:16:29;100989.25;;;2.34
14666;BMP280;7420;53.574;10.040;2023-03-05T10:27:20;100958.84;;;2.66
14666;BMP280;7420;53.574;10.040;2023-03-05T10:30:19;100961.13;;;2.61
14666;BMP280;7420;53.574;10.040;2023-03-05T10:33:14;100967.88;;;2.64
14666;BMP280;7420;53.574;10.040;2023-03-05T10:36:01;100963.53;;;2.55
14666;BMP280;7420;53.574;10.040;2023-03-05T10:44:46;100953.91;;;2.63
14666;BMP280;7420;53.574;10.040;2023-03-05T10:49:51;100957.22;;;3.41
14666;BMP280;7420;53.574;10.040;2023-03-05T10:52:22;100954.13;;;3.46
14666;BMP280;7420;53.574;10.040;2023-03-05T10:54:49;100951.25;;;3.73
14666;BMP280;7420;53.574;10.040;2023-03-05T10:57:29;100952.34;;;3.96
14666;BMP280;7420;53.574;10.040;2023-03-05T11:02:29;100934.56;;;3.90
14666;BMP280;7420;53.574;10.040;2023-03-05T11:04:55;100937.44;;;3.63
14666;BMP280;7420;53.574;10.040;2023-03-05T11:12:33;100926.69;;;4.93
14666;BMP280;7420;53.574;10.040;2023-03-05T11:17:34;100914.25;;;4.71
14666;BMP280;7420;53.574;10.040;2023-03-05T11:25:25;100909.06;;;3.82
14666;BMP280;7420;53.574;10.040;2023-03-05T11:27:54;100912.53;;;3.91
14666;BMP280;7420;53.574;10.040;2023-03-05T11:30:25;100909.94;;;4.15
14666;BMP280;7420;53.574;10.040;2023-03-05T11:33:11;100907.50;;;4.61
14666;BMP280;7420;53.574;10.040;2023-03-05T11:35:39;100910.28;;;4.59
14666;BMP280;7420;53.574;10.040;2023-03-05T11:38:06;100897.25;;;4.90
14666;BMP280;7420;53.574;10.040;2023-03-05T11:40:38;100903.31;;;5.06
14666;BMP280;7420;53.574;10.040;2023-03-05T11:43:04;100895.63;;;4.81
14666;BMP280;7420;53.574;10.040;2023-03-05T11:45:31;100900.75;;;4.66
14666;BMP280;7420;53.574;10.040;2023-03-05T11:48:08;100896.78;;;4.62
14666;BMP280;7420;53.574;10.040;2023-03-05T11:50:36;100878.38;;;4.54
14666;BMP280;7420;53.574;10.040;2023-03-05T11:53:17;100872.56;;;4.91
14666;BMP280;7420;53.574;10.040;2023-03-05T11:56:14;100877.47;;;5.10
14666;BMP280;7420;53.574;10.040;2023-03-05T11:58:51;100871.97;;;5.19
14666;BMP280;7420;53.574;10.040;2023-03-05T12:01:23;100867.03;;;5.55
14666;BMP280;7420;53.574;10.040;2023-03-05T12:03:50;100854.41;;;5.72
14666;BMP280;7420;53.574;10.040;2023-03-05T12:08:52;100851.69;;;6.11
14666;BMP280;7420;53.574;10.040;2023-03-05T12:11:22;100851.59;;;5.74
14666;BMP280;7420;53.574;10.040;2023-03-05T12:16:27;100837.13;;;5.01
14666;BMP280;7420;53.574;10.040;2023-03-05T12:19:00;100844.00;;;5.10
14666;BMP280;7420;53.574;10.040;2023-03-05T12:21:40;100830.94;;;4.78
14666;BMP280;7420;53.574;10.040;2023-03-05T12:29:49;100821.09;;;4.72
14666;BMP280;7420;53.574;10.040;2023-03-05T12:34:48;100829.66;;;4.58
14666;BMP280;7420;53.574;10.040;2023-03-05T12:39:56;100805.16;;;5.04
14666;BMP280;7420;53.574;10.040;2023-03-05T12:42:44;100810.97;;;5.30
14666;BMP280;7420;53.574;10.040;2023-03-05T12:47:47;100804.63;;;4.70
14666;BMP280;7420;53.574;10.040;2023-03-05T12:55:33;100798.38;;;4.63
14666;BMP280;7420;53.574;10.040;2023-03-05T12:58:02;100802.66;;;4.64
14666;BMP280;7420;53.574;10.040;2023-03-05T13:00:48;100783.22;;;4.73
14666;BMP280;7420;53.574;10.040;2023-03-05T13:03:18;100829.31;;;4.61
14666;BMP280;7420;53.574;10.040;2023-03-05T13:05:56;100792.41;;;4.85
14666;BMP280;7420;53.574;10.040;2023-03-05T13:08:40;100788.34;;;5.13
14666;BMP280;7420;53.574;10.040;2023-03-05T13:11:17;100800.06;;;5.33
14666;BMP280;7420;53.574;10.040;2023-03-05T13:13:46;100800.19;;;5.17
14666;BMP280;7420;53.574;10.040;2023-03-05T13:16:21;100779.41;;;4.84
14666;BMP280;7420;53.574;10.040;2023-03-05T13:18:47;100792.97;;;5.11
14666;BMP280;7420;53.574;10.040;2023-03-05T13:21:16;100782.28;;;5.05
14666;BMP280;7420;53.574;10.040;2023-03-05T13:23:50;100776.19;;;5.35
14666;BMP280;7420;53.574;10.040;2023-03-05T13:26:23;100778.75;;;5.73
14666;BMP280;7420;53.574;10.040;2023-03-05T13:29:11;100768.34;;;6.02
14666;BMP280;7420;53.574;10.040;2023-03-05T13:31:44;100769.34;;;6.01
14666;BMP280;7420;53.574;10.040;2023-03-05T13:36:44;100776.19;;;7.61
14666;BMP280;7420;53.574;10.040;2023-03-05T13:39:21;100764.34;;;9.21
14666;BMP280;7420;53.574;10.040;2023-03-05T13:41:56;100751.16;;;9.47
14666;BMP280;7420;53.574;10.040;2023-03-05T13:44:22;100755.44;;;7.08
14666;BMP280;7420;53.574;10.040;2023-03-05T13:46:47;100736.47;;;6.83
14666;BMP280;7420;53.574;10.040;2023-03-05T13:49:22;100735.91;;;6.45
14666;BMP280;7420;53.574;10.040;2023-03-05T13:51:51;100742.00;;;6.31
14666;BMP280;7420;53.574;10.040;2023-03-05T13:54:17;100743.72;;;6.24
14666;BMP280;7420;53.574;10.040;2023-03-05T13:57:02;100725.78;;;5.60
14666;BMP280;7420;53.574;10.040;2023-03-05T13:59:31;100724.38;;;5.27
14666;BMP280;7420;53.574;10.040;2023-03-05T14:02:01;100722.84;;;5.02
14666;BMP280;7420;53.574;10.040;2023-03-05T14:04:29;100741.97;;;4.96
14666;BMP280;7420;53.574;10.040;2023-03-05T14:07:32;100729.63;;;4.97
14666;BMP280;7420;53.574;10.040;2023-03-05T14:10:02;100731.56;;;4.72
14666;BMP280;7420;53.574;10.040;2023-03-05T14:12:35;100727.25;;;4.79
14666;BMP280;7420;53.574;10.040;2023-03-05T14:15:15;100724.97;;;4.76
14666;BMP280;7420;53.574;10.040;2023-03-05T14:17:44;100711.56;;;4.86
14666;BMP280;7420;53.574;10.040;2023-03-05T14:22:40;100718.25;;;4.66
14666;BMP280;7420;53.574;10.040;2023-03-05T14:25:23;100711.16;;;4.66
14666;BMP280;7420;53.574;10.040;2023-03-05T14:27:50;100712.84;;;4.51
14666;BMP280;7420;53.574;10.040;2023-03-05T14:30:19;100707.53;;;4.67
14666;BMP280;7420;53.574;10.040;2023-03-05T14:32:45;100687.47;;;4.66
14666;BMP280;7420;53.574;10.040;2023-03-05T14:35:20;100704.28;;;4.57
14666;BMP280;7420;53.574;10.040;2023-03-05T14:37:48;100700.63;;;4.66
14666;BMP280;7420;53.574;10.040;2023-03-05T14:45:14;100685.75;;;4.81
14666;BMP280;7420;53.574;10.040;2023-03-05T14:47:40;100667.31;;;4.81
14666;BMP280;7420;53.574;10.040;2023-03-05T14:50:08;100669.66;;;4.76
14666;BMP280;7420;53.574;10.040;2023-03-05T14:52:34;100675.94;;;4.67
14666;BMP280;7420;53.574;10.040;2023-03-05T14:55:00;100673.53;;;4.58
14666;BMP280;7420;53.574;10.040;2023-03-05T14:57:27;100665.00;;;4.48
14666;BMP280;7420;53.574;10.040;2023-03-05T14:59:53;100665.03;;;4.40
14666;BMP280;7420;53.574;10.040;2023-03-05T15:02:25;100665.03;;;4.40
14666;BMP280;7420;53.574;10.040;2023-03-05T15:04:51;100677.59;;;4.30
14666;BMP280;7420;53.574;10.040;2023-03-05T15:07:18;100676.63;;;4.23
14666;BMP280;7420;53.574;10.040;2023-03-05T15:09:45;100665.09;;;4.24
14666;BMP280;7420;53.574;10.040;2023-03-05T15:12:12;100661.28;;;4.27
14666;BMP280;7420;53.574;10.040;2023-03-05T15:14:37;100651.75;;;4.26
14666;BMP280;7420;53.574;10.040;2023-03-05T15:17:04;100645.53;;;4.19
14666;BMP280;7420;53.574;10.040;2023-03-05T15:21:55;100655.47;;;4.01
14666;BMP280;7420;53.574;10.040;2023-03-05T15:24:20;100652.19;;;3.99
14666;BMP280;7420;53.574;10.040;2023-03-05T15:26:46;100636.06;;;3.94
14666;BMP280;7420;53.574;10.040;2023-03-05T15:29:11;100629.50;;;3.98
14666;BMP280;7420;53.574;10.040;2023-03-05T15:31:36;100630.81;;;3.94
14666;BMP280;7420;53.574;10.040;2023-03-05T15:34:05;100631.47;;;3.96
14666;BMP280;7420;53.574;10.040;2023-03-05T15:36:30;100636.06;;;3.94
14666;BMP280;7420;53.574;10.040;2023-03-05T15:38:55;100639.03;;;3.91